Private Wetterstation Sandau
Wetterdaten: Donnerstag, 07.03.2013
Datum Zeit Temp. A. Feuchte A. Luftdruck Regen Wind Richtung Richtung Taupunkt Windchill
07.03.2013 00:01 3,2 C 81 % 1005,8 hPa 0,0 l/m 4,0 km/h (1 Bft) O 90 0,3 C 3,2 C
07.03.2013 00:06 3,3 C 81 % 1005,5 hPa 0,0 l/m 2,2 km/h (1 Bft) O-NO 67 0,4 C 3,3 C
07.03.2013 00:11 3,3 C 81 % 1005,7 hPa 0,0 l/m 6,5 km/h (2 Bft) O-NO 67 0,4 C 1,6 C
07.03.2013 00:16 3,3 C 81 % 1005,9 hPa 0,0 l/m 2,5 km/h (1 Bft) NO 45 0,4 C 3,3 C
07.03.2013 00:21 3,3 C 81 % 1005,8 hPa 0,0 l/m 2,9 km/h (1 Bft) O-NO 67 0,4 C 3,3 C
07.03.2013 00:26 3,3 C 81 % 1005,8 hPa 0,0 l/m 5,8 km/h (2 Bft) O-NO 67 0,4 C 1,8 C
07.03.2013 00:31 3,2 C 81 % 1005,5 hPa 0,0 l/m 2,2 km/h (1 Bft) O-NO 67 0,3 C 3,2 C
07.03.2013 00:36 3,2 C 81 % 1005,6 hPa 0,0 l/m 2,9 km/h (1 Bft) NO 45 0,3 C 3,2 C
07.03.2013 00:41 3,1 C 81 % 1005,5 hPa 0,0 l/m 4,0 km/h (1 Bft) O-NO 67 0,2 C 3,1 C
07.03.2013 00:46 3,0 C 81 % 1005,3 hPa 0,0 l/m 4,3 km/h (1 Bft) NO 45 0,1 C 3,0 C
07.03.2013 00:51 3,0 C 81 % 1005,4 hPa 0,0 l/m 5,4 km/h (1 Bft) O-NO 67 0,1 C 1,7 C
07.03.2013 00:56 3,0 C 81 % 1005,1 hPa 0,0 l/m 7,2 km/h (2 Bft) NO 45 0,1 C 1,0 C
07.03.2013 01:01 3,0 C 81 % 1005,2 hPa 0,0 l/m 7,6 km/h (2 Bft) O 90 0,1 C 0,9 C
07.03.2013 01:06 3,0 C 81 % 1005,2 hPa 0,0 l/m 3,6 km/h (1 Bft) NO 45 0,1 C 3,0 C
07.03.2013 01:11 3,1 C 81 % 1005,4 hPa 0,0 l/m 4,7 km/h (1 Bft) O 90 0,2 C 2,1 C
07.03.2013 01:16 2,9 C 81 % 1005,4 hPa 0,0 l/m 3,2 km/h (1 Bft) O 90 -0,0 C 2,9 C
07.03.2013 01:21 2,9 C 81 % 1005,7 hPa 0,0 l/m 2,2 km/h (1 Bft) O-SO 112 -0,0 C 2,9 C
07.03.2013 01:26 2,9 C 81 % 1005,4 hPa 0,0 l/m 6,1 km/h (2 Bft) O-NO 67 -0,0 C 1,3 C
07.03.2013 01:31 2,9 C 81 % 1005,6 hPa 0,0 l/m 6,1 km/h (2 Bft) O 90 -0,0 C 1,3 C
07.03.2013 01:36 2,9 C 81 % 1005,4 hPa 0,0 l/m 6,1 km/h (2 Bft) O-NO 67 -0,0 C 1,3 C
07.03.2013 01:41 2,9 C 81 % 1005,7 hPa 0,0 l/m 4,3 km/h (1 Bft) O-NO 67 -0,0 C 2,9 C
07.03.2013 01:46 2,9 C 81 % 1005,8 hPa 0,0 l/m 7,9 km/h (2 Bft) O-NO 67 -0,0 C 0,7 C
07.03.2013 01:51 2,8 C 81 % 1005,6 hPa 0,0 l/m 4,3 km/h (1 Bft) O 90 -0,1 C 2,8 C
07.03.2013 01:56 2,7 C 81 % 1005,6 hPa 0,0 l/m 3,2 km/h (1 Bft) O-SO 112 -0,2 C 2,7 C
07.03.2013 02:01 2,6 C 82 % 1005,7 hPa 0,0 l/m 8,6 km/h (2 Bft) O-SO 112 -0,2 C 0,1 C
07.03.2013 02:06 2,6 C 82 % 1005,9 hPa 0,0 l/m 5,4 km/h (1 Bft) O-NO 67 -0,2 C 1,2 C
07.03.2013 02:11 2,4 C 82 % 1005,8 hPa 0,0 l/m 1,4 km/h (1 Bft) O 90 -0,4 C 2,4 C
07.03.2013 02:16 2,4 C 82 % 1005,8 hPa 0,0 l/m 0,0 km/h (0 Bft) O-SO 112 -0,4 C 2,4 C
07.03.2013 02:21 2,3 C 82 % 1005,7 hPa 0,0 l/m 3,6 km/h (1 Bft) O-NO 67 -0,4 C 2,3 C
07.03.2013 02:26 2,2 C 83 % 1005,6 hPa 0,0 l/m 7,6 km/h (2 Bft) O 90 -0,4 C -0,0 C
07.03.2013 02:31 2,2 C 83 % 1005,5 hPa 0,0 l/m 3,6 km/h (1 Bft) O-SO 112 -0,4 C 2,2 C
07.03.2013 02:36 2,1 C 83 % 1005,5 hPa 0,0 l/m 0,0 km/h (0 Bft) O-NO 67 -0,5 C 2,1 C
07.03.2013 02:41 1,9 C 83 % 1005,5 hPa 0,0 l/m 3,6 km/h (1 Bft) O-SO 112 -0,7 C 1,9 C
07.03.2013 02:46 1,8 C 83 % 1005,5 hPa 0,0 l/m 2,9 km/h (1 Bft) NO 45 -0,8 C 1,8 C
07.03.2013 02:51 1,8 C 83 % 1005,5 hPa 0,0 l/m 3,6 km/h (1 Bft) O-NO 67 -0,8 C 1,8 C
07.03.2013 02:56 1,9 C 84 % 1005,5 hPa 0,0 l/m 5,0 km/h (1 Bft) SO 135 -0,5 C 0,6 C
07.03.2013 03:01 1,9 C 84 % 1005,5 hPa 0,0 l/m 1,4 km/h (1 Bft) O-NO 67 -0,5 C 1,9 C
07.03.2013 03:06 1,8 C 84 % 1005,4 hPa 0,0 l/m 6,1 km/h (2 Bft) O-SO 112 -0,6 C 0,0 C
07.03.2013 03:11 1,8 C 84 % 1005,4 hPa 0,0 l/m 2,5 km/h (1 Bft) O-NO 67 -0,6 C 1,8 C
07.03.2013 03:16 1,8 C 84 % 1005,4 hPa 0,0 l/m 8,3 km/h (2 Bft) O 90 -0,6 C -0,7 C
07.03.2013 03:21 1,9 C 85 % 1005,3 hPa 0,0 l/m 2,9 km/h (1 Bft) O-NO 67 -0,3 C 1,9 C
07.03.2013 03:26 1,9 C 84 % 1005,3 hPa 0,0 l/m 4,0 km/h (1 Bft) O-NO 67 -0,5 C 1,9 C
07.03.2013 03:31 1,9 C 84 % 1005,3 hPa 0,0 l/m 4,0 km/h (1 Bft) N-NO 22 -0,5 C 1,9 C
07.03.2013 03:36 1,9 C 84 % 1005,3 hPa 0,0 l/m 11,2 km/h (2 Bft) O 90 -0,5 C -1,3 C
07.03.2013 03:41 1,9 C 84 % 1005,4 hPa 0,0 l/m 2,2 km/h (1 Bft) O-NO 67 -0,5 C 1,9 C
07.03.2013 03:46 1,9 C 84 % 1005,6 hPa 0,0 l/m 5,0 km/h (1 Bft) NO 45 -0,5 C 0,6 C
07.03.2013 03:51 1,9 C 84 % 1005,6 hPa 0,0 l/m 4,7 km/h (1 Bft) O-NO 67 -0,5 C 0,7 C
07.03.2013 03:56 1,9 C 84 % 1005,3 hPa 0,0 l/m 6,8 km/h (2 Bft) O 90 -0,5 C -0,1 C
07.03.2013 04:01 1,8 C 84 % 1005,3 hPa 0,0 l/m 1,8 km/h (1 Bft) O-NO 67 -0,6 C 1,8 C
07.03.2013 04:06 1,8 C 84 % 1005,2 hPa 0,0 l/m 4,0 km/h (1 Bft) O-NO 67 -0,6 C 1,8 C
07.03.2013 04:11 1,8 C 84 % 1005,2 hPa 0,0 l/m 4,3 km/h (1 Bft) O-SO 112 -0,6 C 1,8 C
07.03.2013 04:16 1,6 C 84 % 1005,3 hPa 0,0 l/m 5,0 km/h (1 Bft) O-NO 67 -0,8 C 0,2 C
07.03.2013 04:21 1,6 C 84 % 1005,3 hPa 0,0 l/m 2,5 km/h (1 Bft) O-SO 112 -0,8 C 1,6 C
07.03.2013 04:26 1,5 C 84 % 1005,2 hPa 0,0 l/m 5,8 km/h (2 Bft) O-SO 112 -0,9 C -0,2 C
07.03.2013 04:31 1,4 C 84 % 1005,1 hPa 0,0 l/m 3,6 km/h (1 Bft) O 90 -1,0 C 1,4 C
07.03.2013 04:36 1,4 C 84 % 1005,2 hPa 0,0 l/m 4,3 km/h (1 Bft) O-SO 112 -1,0 C 1,4 C
07.03.2013 04:41 1,3 C 85 % 1005,3 hPa 0,0 l/m 4,0 km/h (1 Bft) O-SO 112 -0,9 C 1,3 C
07.03.2013 04:46 1,3 C 85 % 1005,4 hPa 0,0 l/m 3,2 km/h (1 Bft) O-NO 67 -0,9 C 1,3 C
07.03.2013 04:51 1,3 C 85 % 1005,3 hPa 0,0 l/m 6,1 km/h (2 Bft) O-NO 67 -0,9 C -0,6 C
07.03.2013 04:56 1,4 C 85 % 1005,2 hPa 0,0 l/m 6,5 km/h (2 Bft) O-NO 67 -0,8 C -0,6 C
07.03.2013 05:01 1,5 C 85 % 1005,2 hPa 0,0 l/m 7,6 km/h (2 Bft) O-NO 67 -0,7 C -0,9 C
07.03.2013 05:06 1,6 C 85 % 1005,2 hPa 0,0 l/m 5,4 km/h (1 Bft) O 90 -0,6 C 0,1 C
07.03.2013 05:11 1,6 C 85 % 1005,3 hPa 0,0 l/m 4,3 km/h (1 Bft) O-NO 67 -0,6 C 1,6 C
07.03.2013 05:16 1,6 C 85 % 1005,4 hPa 0,0 l/m 3,6 km/h (1 Bft) O-NO 67 -0,6 C 1,6 C
07.03.2013 05:21 1,6 C 85 % 1005,3 hPa 0,0 l/m 10,8 km/h (2 Bft) O 90 -0,6 C -1,6 C
07.03.2013 05:26 1,8 C 85 % 1005,3 hPa 0,0 l/m 5,0 km/h (1 Bft) O-SO 112 -0,4 C 0,5 C
07.03.2013 05:31 1,8 C 84 % 1005,2 hPa 0,0 l/m 4,3 km/h (1 Bft) O 90 -0,6 C 1,8 C
07.03.2013 05:36 1,8 C 84 % 1005,3 hPa 0,0 l/m 6,5 km/h (2 Bft) O-NO 67 -0,6 C -0,1 C
07.03.2013 05:41 1,8 C 84 % 1005,4 hPa 0,0 l/m 4,0 km/h (1 Bft) O-SO 112 -0,6 C 1,8 C
07.03.2013 05:46 1,8 C 84 % 1005,4 hPa 0,0 l/m 2,5 km/h (1 Bft) O-NO 67 -0,6 C 1,8 C
07.03.2013 05:51 1,8 C 84 % 1005,5 hPa 0,0 l/m 2,5 km/h (1 Bft) O-NO 67 -0,6 C 1,8 C
07.03.2013 05:56 1,8 C 84 % 1005,4 hPa 0,0 l/m 1,4 km/h (1 Bft) O-NO 67 -0,6 C 1,8 C
07.03.2013 06:01 1,8 C 84 % 1005,3 hPa 0,0 l/m 4,0 km/h (1 Bft) NO 45 -0,6 C 1,8 C
07.03.2013 06:06 1,8 C 84 % 1005,3 hPa 0,0 l/m 5,8 km/h (2 Bft) NO 45 -0,6 C 0,1 C
07.03.2013 06:11 1,8 C 84 % 1005,3 hPa 0,0 l/m 3,6 km/h (1 Bft) O-NO 67 -0,6 C 1,8 C
07.03.2013 06:16 1,7 C 84 % 1005,4 hPa 0,0 l/m 6,1 km/h (2 Bft) O-NO 67 -0,7 C -0,1 C
07.03.2013 06:21 1,8 C 84 % 1005,5 hPa 0,0 l/m 4,7 km/h (1 Bft) NO 45 -0,6 C 0,6 C
07.03.2013 06:26 1,7 C 84 % 1005,6 hPa 0,0 l/m 7,2 km/h (2 Bft) O-NO 67 -0,7 C -0,5 C
07.03.2013 06:31 1,8 C 84 % 1005,5 hPa 0,0 l/m 5,8 km/h (2 Bft) O 90 -0,6 C 0,1 C
07.03.2013 06:36 1,7 C 84 % 1005,7 hPa 0,0 l/m 9,0 km/h (2 Bft) NO 45 -0,7 C -1,0 C
07.03.2013 06:41 1,8 C 84 % 1005,8 hPa 0,0 l/m 9,0 km/h (2 Bft) O-NO 67 -0,6 C -0,9 C
07.03.2013 06:46 1,8 C 84 % 1005,8 hPa 0,0 l/m 5,8 km/h (2 Bft) O-NO 67 -0,6 C 0,1 C
07.03.2013 06:51 1,8 C 84 % 1005,9 hPa 0,0 l/m 10,4 km/h (2 Bft) O 90 -0,6 C -1,3 C
07.03.2013 06:56 1,8 C 84 % 1005,9 hPa 0,0 l/m 4,0 km/h (1 Bft) O-NO 67 -0,6 C 1,8 C
07.03.2013 07:01 1,8 C 84 % 1005,9 hPa 0,0 l/m 5,8 km/h (2 Bft) O 90 -0,6 C 0,1 C
07.03.2013 07:06 1,8 C 84 % 1006,1 hPa 0,0 l/m 6,1 km/h (2 Bft) O-NO 67 -0,6 C 0,0 C
07.03.2013 07:11 1,8 C 84 % 1006,1 hPa 0,0 l/m 5,4 km/h (1 Bft) O-SO 112 -0,6 C 0,3 C
07.03.2013 07:16 1,8 C 83 % 1006,2 hPa 0,0 l/m 7,6 km/h (2 Bft) O-NO 67 -0,8 C -0,5 C
07.03.2013 07:21 1,9 C 83 % 1006,1 hPa 0,0 l/m 13,3 km/h (3 Bft) O 90 -0,7 C -1,8 C
07.03.2013 07:26 1,9 C 83 % 1006,2 hPa 0,0 l/m 11,2 km/h (2 Bft) O-SO 112 -0,7 C -1,3 C
07.03.2013 07:31 1,9 C 83 % 1006,3 hPa 0,0 l/m 5,8 km/h (2 Bft) NO 45 -0,7 C 0,2 C
07.03.2013 07:36 1,9 C 83 % 1006,2 hPa 0,0 l/m 13,3 km/h (3 Bft) O-NO 67 -0,7 C -1,8 C
07.03.2013 07:41 2,1 C 83 % 1006,2 hPa 0,0 l/m 11,2 km/h (2 Bft) O-SO 112 -0,5 C -1,1 C
07.03.2013 07:46 2,1 C 83 % 1006,2 hPa 0,0 l/m 9,0 km/h (2 Bft) NO 45 -0,5 C -0,6 C
07.03.2013 07:51 2,2 C 83 % 1006,2 hPa 0,0 l/m 13,3 km/h (3 Bft) SO 135 -0,4 C -1,4 C
07.03.2013 07:56 2,3 C 83 % 1006,3 hPa 0,0 l/m 8,6 km/h (2 Bft) O-NO 67 -0,3 C -0,2 C
07.03.2013 08:01 2,3 C 82 % 1006,3 hPa 0,0 l/m 4,7 km/h (1 Bft) O-NO 67 -0,4 C 1,2 C
07.03.2013 08:06 2,4 C 82 % 1006,2 hPa 0,0 l/m 11,5 km/h (2 Bft) O-NO 67 -0,4 C -0,8 C
07.03.2013 08:11 2,5 C 82 % 1006,2 hPa 0,0 l/m 10,1 km/h (2 Bft) O 90 -0,3 C -0,4 C
07.03.2013 08:16 2,6 C 81 % 1006,2 hPa 0,0 l/m 7,6 km/h (2 Bft) O-NO 67 -0,3 C 0,4 C
07.03.2013 08:21 2,6 C 81 % 1006,3 hPa 0,0 l/m 9,4 km/h (2 Bft) O-SO 112 -0,3 C -0,1 C
07.03.2013 08:26 2,8 C 81 % 1006,2 hPa 0,0 l/m 6,8 km/h (2 Bft) O-NO 67 -0,1 C 0,9 C
07.03.2013 08:31 2,8 C 81 % 1006,2 hPa 0,0 l/m 5,8 km/h (2 Bft) O 90 -0,1 C 1,3 C
07.03.2013 08:36 2,9 C 81 % 1006,3 hPa 0,0 l/m 19,8 km/h (3 Bft) O-SO 112 -0,0 C -1,6 C
07.03.2013 08:41 2,9 C 80 % 1006,4 hPa 0,0 l/m 14,4 km/h (3 Bft) O 90 -0,2 C -0,7 C
07.03.2013 08:46 3,1 C 80 % 1006,4 hPa 0,0 l/m 5,4 km/h (1 Bft) O-NO 67 -0,0 C 1,8 C
07.03.2013 08:51 3,1 C 80 % 1006,7 hPa 0,0 l/m 7,6 km/h (2 Bft) O-NO 67 -0,0 C 1,0 C
07.03.2013 08:56 3,2 C 79 % 1006,6 hPa 0,0 l/m 8,3 km/h (2 Bft) O-SO 112 -0,1 C 0,9 C
07.03.2013 09:01 3,3 C 79 % 1006,4 hPa 0,0 l/m 10,1 km/h (2 Bft) O-SO 112 0,0 C 0,6 C
07.03.2013 09:06 3,3 C 79 % 1006,4 hPa 0,0 l/m 5,8 km/h (2 Bft) NO 45 0,0 C 1,8 C
07.03.2013 09:11 3,5 C 79 % 1006,3 hPa 0,0 l/m 11,2 km/h (2 Bft) O 90 0,2 C 0,6 C
07.03.2013 09:16 3,6 C 78 % 1006,3 hPa 0,0 l/m 8,6 km/h (2 Bft) NO 45 0,1 C 1,3 C
07.03.2013 09:21 3,9 C 78 % 1006,3 hPa 0,0 l/m 13,0 km/h (3 Bft) O-NO 67 0,4 C 0,7 C
07.03.2013 09:26 4,2 C 77 % 1006,4 hPa 0,0 l/m 5,0 km/h (1 Bft) O-SO 112 0,5 C 3,2 C
07.03.2013 09:31 4,3 C 76 % 1006,4 hPa 0,0 l/m 8,6 km/h (2 Bft) O 90 0,5 C 2,2 C
07.03.2013 09:36 4,4 C 76 % 1006,4 hPa 0,0 l/m 9,7 km/h (2 Bft) O-NO 67 0,5 C 2,0 C
07.03.2013 09:41 4,4 C 76 % 1006,3 hPa 0,0 l/m 21,6 km/h (4 Bft) O 90 0,5 C 0,1 C
07.03.2013 09:46 4,6 C 75 % 1006,5 hPa 0,0 l/m 14,8 km/h (3 Bft) O-NO 67 0,6 C 1,3 C
07.03.2013 09:51 4,7 C 75 % 1006,4 hPa 0,0 l/m 9,7 km/h (2 Bft) O-NO 67 0,7 C 2,4 C
07.03.2013 09:56 4,8 C 74 % 1006,5 hPa 0,0 l/m 3,6 km/h (1 Bft) O-NO 67 0,6 C 4,8 C
07.03.2013 10:01 4,9 C 74 % 1006,4 hPa 0,0 l/m 12,2 km/h (2 Bft) SO 135 0,7 C 2,1 C
07.03.2013 10:06 4,9 C 73 % 1006,2 hPa 0,0 l/m 6,5 km/h (2 Bft) SO 135 0,5 C 3,4 C
07.03.2013 10:11 5,0 C 73 % 1006,2 hPa 0,0 l/m 10,1 km/h (2 Bft) NO 45 0,6 C 2,6 C
07.03.2013 10:16 5,1 C 73 % 1006,2 hPa 0,0 l/m 23,0 km/h (4 Bft) O-NO 67 0,7 C 0,9 C
07.03.2013 10:21 5,1 C 72 % 1006,1 hPa 0,0 l/m 10,8 km/h (2 Bft) O-NO 67 0,5 C 2,6 C
07.03.2013 10:26 5,2 C 73 % 1006,2 hPa 0,0 l/m 6,5 km/h (2 Bft) O 90 0,8 C 3,8 C
07.03.2013 10:31 5,3 C 72 % 1006,2 hPa 0,0 l/m 5,8 km/h (2 Bft) S-SO 157 0,7 C 4,1 C
07.03.2013 10:36 5,3 C 72 % 1006,1 hPa 0,0 l/m 17,3 km/h (3 Bft) O 90 0,7 C 1,8 C
07.03.2013 10:41 5,5 C 72 % 1006,2 hPa 0,0 l/m 12,2 km/h (2 Bft) O 90 0,9 C 2,8 C
07.03.2013 10:46 5,6 C 71 % 1006,2 hPa 0,0 l/m 6,1 km/h (2 Bft) O-SO 112 0,8 C 4,4 C
07.03.2013 10:51 5,8 C 71 % 1006,1 hPa 0,0 l/m 8,3 km/h (2 Bft) O-NO 67 1,0 C 4,0 C
07.03.2013 10:56 5,8 C 71 % 1006,1 hPa 0,0 l/m 10,4 km/h (2 Bft) O-NO 67 1,0 C 3,5 C
07.03.2013 11:01 5,9 C 70 % 1006,2 hPa 0,0 l/m 7,6 km/h (2 Bft) O-SO 112 0,9 C 4,3 C
07.03.2013 11:06 6,1 C 70 % 1006,3 hPa 0,0 l/m 7,6 km/h (2 Bft) O-NO 67 1,0 C 4,5 C
07.03.2013 11:11 6,4 C 70 % 1006,3 hPa 0,0 l/m 19,4 km/h (3 Bft) NO 45 1,3 C 2,9 C
07.03.2013 11:16 6,8 C 69 % 1006,3 hPa 0,0 l/m 13,0 km/h (3 Bft) O-NO 67 1,5 C 4,3 C
07.03.2013 11:21 7,0 C 68 % 1006,3 hPa 0,0 l/m 20,2 km/h (4 Bft) O 90 1,5 C 3,6 C
07.03.2013 11:26 7,2 C 67 % 1006,2 hPa 0,0 l/m 10,1 km/h (2 Bft) O-NO 67 1,5 C 5,3 C
07.03.2013 11:31 7,2 C 66 % 1006,2 hPa 0,0 l/m 14,4 km/h (3 Bft) O-NO 67 1,3 C 4,5 C
07.03.2013 11:36 7,2 C 66 % 1006,2 hPa 0,0 l/m 6,5 km/h (2 Bft) S-SW 202 1,3 C 6,1 C
07.03.2013 11:41 7,2 C 66 % 1006,2 hPa 0,0 l/m 8,3 km/h (2 Bft) O-NO 67 1,3 C 5,6 C
07.03.2013 11:46 7,2 C 65 % 1006,2 hPa 0,0 l/m 14,4 km/h (3 Bft) O-SO 112 1,1 C 4,5 C
07.03.2013 11:51 7,2 C 66 % 1006,2 hPa 0,0 l/m 15,5 km/h (3 Bft) O-SO 112 1,3 C 4,4 C
07.03.2013 11:56 7,3 C 66 % 1006,2 hPa 0,0 l/m 4,3 km/h (1 Bft) O-NO 67 1,4 C 7,3 C
07.03.2013 12:01 7,4 C 65 % 1006,2 hPa 0,0 l/m 13,0 km/h (3 Bft) O-NO 67 1,3 C 5,0 C
07.03.2013 12:06 7,4 C 65 % 1006,1 hPa 0,0 l/m 5,8 km/h (2 Bft) O-NO 67 1,3 C 6,5 C
07.03.2013 12:11 7,5 C 65 % 1006,1 hPa 0,0 l/m 7,6 km/h (2 Bft) O-NO 67 1,4 C 6,2 C
07.03.2013 12:16 7,5 C 65 % 1006,2 hPa 0,0 l/m 16,6 km/h (3 Bft) O-NO 67 1,4 C 4,6 C
07.03.2013 12:21 7,5 C 64 % 1006,2 hPa 0,0 l/m 16,9 km/h (3 Bft) SO 135 1,1 C 4,6 C
07.03.2013 12:26 7,6 C 65 % 1006,2 hPa 0,0 l/m 6,8 km/h (2 Bft) O-SO 112 1,5 C 6,5 C
07.03.2013 12:31 7,7 C 65 % 1006,1 hPa 0,0 l/m 16,6 km/h (3 Bft) O-NO 67 1,5 C 4,9 C
07.03.2013 12:36 7,8 C 64 % 1006,1 hPa 0,0 l/m 7,2 km/h (2 Bft) SO 135 1,4 C 6,6 C
07.03.2013 12:41 7,8 C 64 % 1006,2 hPa 0,0 l/m 6,5 km/h (2 Bft) O 90 1,4 C 6,8 C
07.03.2013 12:46 7,8 C 64 % 1006,3 hPa 0,0 l/m 22,3 km/h (4 Bft) O-NO 67 1,4 C 4,4 C
07.03.2013 12:51 7,6 C 64 % 1006,3 hPa 0,0 l/m 10,4 km/h (2 Bft) O 90 1,2 C 5,7 C
07.03.2013 12:56 7,5 C 64 % 1006,2 hPa 0,0 l/m 13,3 km/h (3 Bft) O 90 1,1 C 5,1 C
07.03.2013 13:01 7,6 C 64 % 1006,3 hPa 0,0 l/m 16,6 km/h (3 Bft) O 90 1,2 C 4,7 C
07.03.2013 13:06 7,6 C 64 % 1006,2 hPa 0,0 l/m 14,8 km/h (3 Bft) SO 135 1,2 C 5,0 C
07.03.2013 13:11 7,5 C 63 % 1006,3 hPa 0,0 l/m 20,5 km/h (4 Bft) O-SO 112 0,9 C 4,2 C
07.03.2013 13:16 7,6 C 63 % 1006,2 hPa 0,0 l/m 10,1 km/h (2 Bft) O-SO 112 1,0 C 5,7 C
07.03.2013 13:21 7,6 C 64 % 1006,2 hPa 0,0 l/m 13,3 km/h (3 Bft) O-NO 67 1,2 C 5,2 C
07.03.2013 13:26 7,6 C 63 % 1006,2 hPa 0,0 l/m 14,8 km/h (3 Bft) O-NO 67 1,0 C 5,0 C
07.03.2013 13:31 7,6 C 64 % 1006,2 hPa 0,0 l/m 10,8 km/h (2 Bft) O 90 1,2 C 5,6 C
07.03.2013 13:36 7,8 C 63 % 1006,3 hPa 0,0 l/m 20,9 km/h (4 Bft) O 90 1,2 C 4,5 C
07.03.2013 13:41 7,8 C 63 % 1006,1 hPa 0,0 l/m 13,0 km/h (3 Bft) O-NO 67 1,2 C 5,5 C
07.03.2013 13:46 7,8 C 63 % 1006,1 hPa 0,0 l/m 10,8 km/h (2 Bft) O-NO 67 1,2 C 5,9 C
07.03.2013 13:51 7,8 C 63 % 1006,1 hPa 0,0 l/m 12,2 km/h (2 Bft) O-SO 112 1,2 C 5,6 C
07.03.2013 13:56 7,8 C 63 % 1005,9 hPa 0,0 l/m 7,6 km/h (2 Bft) NO 45 1,2 C 6,5 C
07.03.2013 14:01 7,8 C 64 % 1005,9 hPa 0,0 l/m 6,5 km/h (2 Bft) O-NO 67 1,4 C 6,8 C
07.03.2013 14:06 7,8 C 63 % 1005,9 hPa 0,0 l/m 12,2 km/h (2 Bft) O 90 1,2 C 5,6 C
07.03.2013 14:11 7,8 C 63 % 1005,9 hPa 0,0 l/m 12,6 km/h (3 Bft) O-NO 67 1,2 C 5,6 C
07.03.2013 14:16 7,6 C 63 % 1005,9 hPa 0,0 l/m 22,0 km/h (4 Bft) O 90 1,0 C 4,1 C
07.03.2013 14:21 7,6 C 64 % 1006,0 hPa 0,0 l/m 15,8 km/h (3 Bft) NO 45 1,2 C 4,8 C
07.03.2013 14:26 7,6 C 64 % 1006,1 hPa 0,0 l/m 18,7 km/h (3 Bft) O-NO 67 1,2 C 4,5 C
07.03.2013 14:31 7,6 C 64 % 1006,1 hPa 0,0 l/m 6,8 km/h (2 Bft) SO 135 1,2 C 6,5 C
07.03.2013 14:36 7,8 C 64 % 1006,0 hPa 0,0 l/m 14,8 km/h (3 Bft) O 90 1,4 C 5,2 C
07.03.2013 14:41 7,6 C 65 % 1006,1 hPa 0,0 l/m 11,2 km/h (2 Bft) O 90 1,5 C 5,5 C
07.03.2013 14:46 7,6 C 65 % 1006,1 hPa 0,0 l/m 15,5 km/h (3 Bft) O-NO 67 1,5 C 4,9 C
07.03.2013 14:51 7,6 C 65 % 1006,1 hPa 0,0 l/m 14,8 km/h (3 Bft) O 90 1,5 C 5,0 C
07.03.2013 14:56 7,6 C 65 % 1006,3 hPa 0,0 l/m 11,2 km/h (2 Bft) O 90 1,5 C 5,5 C
07.03.2013 15:01 7,6 C 65 % 1006,1 hPa 0,0 l/m 7,6 km/h (2 Bft) S-SO 157 1,5 C 6,3 C
07.03.2013 15:06 7,6 C 65 % 1006,0 hPa 0,0 l/m 7,2 km/h (2 Bft) O-NO 67 1,5 C 6,4 C
07.03.2013 15:11 7,7 C 65 % 1006,2 hPa 0,0 l/m 8,6 km/h (2 Bft) NO 45 1,5 C 6,2 C
07.03.2013 15:16 7,7 C 65 % 1006,1 hPa 0,0 l/m 9,0 km/h (2 Bft) O-SO 112 1,5 C 6,1 C
07.03.2013 15:21 7,8 C 65 % 1006,2 hPa 0,0 l/m 4,0 km/h (1 Bft) O-NO 67 1,6 C 7,8 C
07.03.2013 15:26 7,9 C 65 % 1006,1 hPa 0,0 l/m 4,7 km/h (1 Bft) O-NO 67 1,7 C 7,5 C
07.03.2013 15:31 7,9 C 65 % 1006,1 hPa 0,0 l/m 12,2 km/h (2 Bft) O-NO 67 1,7 C 5,7 C
07.03.2013 15:36 7,9 C 65 % 1006,2 hPa 0,0 l/m 7,9 km/h (2 Bft) SO 135 1,7 C 6,6 C
07.03.2013 15:41 7,8 C 64 % 1006,3 hPa 0,0 l/m 18,4 km/h (3 Bft) O 90 1,4 C 4,8 C
07.03.2013 15:46 7,8 C 64 % 1006,0 hPa 0,0 l/m 13,3 km/h (3 Bft) SO 135 1,4 C 5,4 C
07.03.2013 15:51 7,8 C 63 % 1006,1 hPa 0,0 l/m 20,5 km/h (4 Bft) O-SO 112 1,2 C 4,5 C
07.03.2013 15:56 7,6 C 64 % 1006,1 hPa 0,0 l/m 9,4 km/h (2 Bft) O 90 1,2 C 5,9 C
07.03.2013 16:01 7,6 C 63 % 1005,9 hPa 0,0 l/m 19,8 km/h (3 Bft) O 90 1,0 C 4,4 C
07.03.2013 16:06 7,5 C 63 % 1006,2 hPa 0,0 l/m 9,4 km/h (2 Bft) O 90 0,9 C 5,8 C
07.03.2013 16:11 7,6 C 63 % 1006,2 hPa 0,0 l/m 14,8 km/h (3 Bft) O-SO 112 1,0 C 5,0 C
07.03.2013 16:16 7,5 C 64 % 1006,3 hPa 0,0 l/m 11,2 km/h (2 Bft) O-SO 112 1,1 C 5,4 C
07.03.2013 16:21 7,5 C 63 % 1006,2 hPa 0,0 l/m 7,2 km/h (2 Bft) O 90 0,9 C 6,3 C
07.03.2013 16:26 7,5 C 63 % 1006,3 hPa 0,0 l/m 5,8 km/h (2 Bft) S 180 0,9 C 6,7 C
07.03.2013 16:31 7,4 C 64 % 1006,4 hPa 0,0 l/m 15,5 km/h (3 Bft) O 90 1,0 C 4,6 C
07.03.2013 16:36 7,4 C 63 % 1006,3 hPa 0,0 l/m 21,6 km/h (4 Bft) O-NO 67 0,8 C 3,9 C
07.03.2013 16:41 7,4 C 64 % 1006,2 hPa 0,0 l/m 24,8 km/h (4 Bft) O-SO 112 1,0 C 3,6 C
07.03.2013 16:46 7,4 C 63 % 1006,1 hPa 0,0 l/m 13,0 km/h (3 Bft) O-NO 67 0,8 C 5,0 C
07.03.2013 16:51 7,4 C 64 % 1006,2 hPa 0,0 l/m 16,9 km/h (3 Bft) NO 45 1,0 C 4,5 C
07.03.2013 16:56 7,4 C 64 % 1006,2 hPa 0,0 l/m 10,8 km/h (2 Bft) NO 45 1,0 C 5,4 C
07.03.2013 17:01 7,3 C 64 % 1006,1 hPa 0,0 l/m 8,6 km/h (2 Bft) O-SO 112 1,0 C 5,7 C
07.03.2013 17:06 7,3 C 64 % 1006,1 hPa 0,0 l/m 10,8 km/h (2 Bft) O 90 1,0 C 5,3 C
07.03.2013 17:11 7,3 C 64 % 1006,2 hPa 0,0 l/m 9,4 km/h (2 Bft) O-NO 67 1,0 C 5,5 C
07.03.2013 17:16 7,3 C 64 % 1006,0 hPa 0,0 l/m 10,8 km/h (2 Bft) O-SO 112 1,0 C 5,3 C
07.03.2013 17:21 7,3 C 64 % 1006,1 hPa 0,0 l/m 12,6 km/h (3 Bft) O 90 1,0 C 4,9 C
07.03.2013 17:26 7,3 C 64 % 1006,1 hPa 0,0 l/m 8,6 km/h (2 Bft) O 90 1,0 C 5,7 C
07.03.2013 17:31 7,2 C 64 % 1006,2 hPa 0,0 l/m 9,7 km/h (2 Bft) O 90 0,9 C 5,3 C
07.03.2013 17:36 7,2 C 63 % 1006,0 hPa 0,0 l/m 4,0 km/h (1 Bft) O-NO 67 0,6 C 7,2 C
07.03.2013 17:41 7,3 C 63 % 1006,3 hPa 0,0 l/m 5,0 km/h (1 Bft) O-NO 67 0,7 C 6,7 C
07.03.2013 17:46 7,3 C 63 % 1006,2 hPa 0,0 l/m 4,7 km/h (1 Bft) O-NO 67 0,7 C 6,8 C
07.03.2013 17:51 7,3 C 63 % 1006,2 hPa 0,0 l/m 5,0 km/h (1 Bft) O 90 0,7 C 6,7 C
07.03.2013 17:56 7,3 C 63 % 1006,4 hPa 0,0 l/m 13,7 km/h (3 Bft) O-NO 67 0,7 C 4,8 C
07.03.2013 18:01 7,1 C 63 % 1006,4 hPa 0,0 l/m 9,7 km/h (2 Bft) NO 45 0,5 C 5,2 C
07.03.2013 18:06 6,8 C 63 % 1006,3 hPa 0,0 l/m 5,8 km/h (2 Bft) NO 45 0,3 C 5,9 C
07.03.2013 18:11 6,6 C 64 % 1006,4 hPa 0,0 l/m 9,0 km/h (2 Bft) O-NO 67 0,3 C 4,8 C
07.03.2013 18:16 6,4 C 64 % 1006,4 hPa 0,0 l/m 17,6 km/h (3 Bft) O-NO 67 0,1 C 3,1 C
07.03.2013 18:21 6,2 C 65 % 1006,4 hPa 0,0 l/m 9,7 km/h (2 Bft) NO 45 0,1 C 4,2 C
07.03.2013 18:26 6,1 C 65 % 1006,6 hPa 0,0 l/m 8,3 km/h (2 Bft) O-NO 67 0,0 C 4,4 C
07.03.2013 18:31 6,0 C 66 % 1006,6 hPa 0,0 l/m 6,5 km/h (2 Bft) O-SO 112 0,1 C 4,7 C
07.03.2013 18:36 5,9 C 66 % 1006,7 hPa 0,0 l/m 9,0 km/h (2 Bft) O-NO 67 0,0 C 4,0 C
07.03.2013 18:41 5,9 C 66 % 1006,9 hPa 0,0 l/m 5,0 km/h (1 Bft) NO 45 0,0 C 5,1 C
07.03.2013 18:46 5,9 C 66 % 1006,9 hPa 0,0 l/m 8,3 km/h (2 Bft) NO 45 0,0 C 4,1 C
07.03.2013 18:51 5,9 C 66 % 1007,0 hPa 0,0 l/m 11,9 km/h (2 Bft) O-NO 67 0,0 C 3,4 C
07.03.2013 18:56 5,8 C 66 % 1007,1 hPa 0,0 l/m 6,1 km/h (2 Bft) NO 45 -0,0 C 4,6 C
07.03.2013 19:01 5,8 C 66 % 1007,2 hPa 0,0 l/m 5,4 km/h (1 Bft) O-NO 67 -0,0 C 4,8 C
07.03.2013 19:06 5,7 C 66 % 1007,1 hPa 0,0 l/m 11,9 km/h (2 Bft) O-NO 67 -0,1 C 3,1 C
07.03.2013 19:11 5,6 C 66 % 1007,2 hPa 0,0 l/m 8,3 km/h (2 Bft) O-NO 67 -0,2 C 3,8 C
07.03.2013 19:16 5,5 C 66 % 1007,3 hPa 0,0 l/m 8,3 km/h (2 Bft) O-NO 67 -0,3 C 3,6 C
07.03.2013 19:21 5,4 C 66 % 1007,4 hPa 0,0 l/m 8,6 km/h (2 Bft) NO 45 -0,4 C 3,5 C
07.03.2013 19:26 5,4 C 66 % 1007,3 hPa 0,0 l/m 2,9 km/h (1 Bft) O-NO 67 -0,4 C 5,4 C
07.03.2013 19:31 5,3 C 66 % 1007,2 hPa 0,0 l/m 10,1 km/h (2 Bft) NO 45 -0,5 C 3,0 C
07.03.2013 19:36 5,3 C 66 % 1007,1 hPa 0,0 l/m 9,0 km/h (2 Bft) O 90 -0,5 C 3,2 C
07.03.2013 19:41 5,2 C 66 % 1007,2 hPa 0,0 l/m 6,1 km/h (2 Bft) O-NO 67 -0,6 C 3,9 C
07.03.2013 19:46 5,1 C 66 % 1007,2 hPa 0,0 l/m 4,7 km/h (1 Bft) O-NO 67 -0,7 C 4,3 C
07.03.2013 19:51 5,1 C 66 % 1007,3 hPa 0,0 l/m 8,6 km/h (2 Bft) N-NO 22 -0,7 C 3,1 C
07.03.2013 19:56 5,1 C 66 % 1007,2 hPa 0,0 l/m 6,5 km/h (2 Bft) O-SO 112 -0,7 C 3,7 C
07.03.2013 20:01 5,1 C 66 % 1007,2 hPa 0,0 l/m 13,0 km/h (3 Bft) O-NO 67 -0,7 C 2,2 C
07.03.2013 20:06 5,1 C 66 % 1007,4 hPa 0,0 l/m 8,3 km/h (2 Bft) O-SO 112 -0,7 C 3,2 C
07.03.2013 20:11 5,1 C 66 % 1007,4 hPa 0,0 l/m 12,2 km/h (2 Bft) NO 45 -0,7 C 2,3 C
07.03.2013 20:16 5,1 C 65 % 1007,5 hPa 0,0 l/m 5,0 km/h (1 Bft) NO 45 -0,9 C 4,2 C
07.03.2013 20:21 5,1 C 65 % 1007,4 hPa 0,0 l/m 15,5 km/h (3 Bft) O-NO 67 -0,9 C 1,8 C
07.03.2013 20:26 5,1 C 65 % 1007,5 hPa 0,0 l/m 16,9 km/h (3 Bft) O-NO 67 -0,9 C 1,6 C
07.03.2013 20:31 5,1 C 65 % 1007,4 hPa 0,0 l/m 3,2 km/h (1 Bft) O-NO 67 -0,9 C 5,1 C
07.03.2013 20:36 5,1 C 65 % 1007,4 hPa 0,0 l/m 13,0 km/h (3 Bft) O-NO 67 -0,9 C 2,2 C
07.03.2013 20:41 5,1 C 65 % 1007,4 hPa 0,0 l/m 9,4 km/h (2 Bft) O 90 -0,9 C 2,9 C
07.03.2013 20:46 5,1 C 64 % 1007,3 hPa 0,0 l/m 11,9 km/h (2 Bft) O-NO 67 -1,1 C 2,4 C
07.03.2013 20:51 5,1 C 64 % 1007,4 hPa 0,0 l/m 8,3 km/h (2 Bft) O-NO 67 -1,1 C 3,2 C
07.03.2013 20:56 5,1 C 64 % 1007,4 hPa 0,0 l/m 4,0 km/h (1 Bft) O-NO 67 -1,1 C 5,1 C
07.03.2013 21:01 5,1 C 64 % 1007,5 hPa 0,0 l/m 6,1 km/h (2 Bft) SO 135 -1,1 C 3,8 C
07.03.2013 21:06 5,1 C 64 % 1007,5 hPa 0,0 l/m 7,2 km/h (2 Bft) O-SO 112 -1,1 C 3,5 C
07.03.2013 21:11 5,1 C 64 % 1007,5 hPa 0,0 l/m 2,5 km/h (1 Bft) N-NO 22 -1,1 C 5,1 C
07.03.2013 21:16 5,1 C 64 % 1007,7 hPa 0,0 l/m 4,3 km/h (1 Bft) NO 45 -1,1 C 5,1 C
07.03.2013 21:21 5,1 C 64 % 1007,7 hPa 0,0 l/m 3,2 km/h (1 Bft) SO 135 -1,1 C 5,1 C
07.03.2013 21:26 5,1 C 64 % 1007,8 hPa 0,0 l/m 7,9 km/h (2 Bft) O-NO 67 -1,1 C 3,3 C
07.03.2013 21:31 5,2 C 64 % 1007,8 hPa 0,0 l/m 3,6 km/h (1 Bft) N-NO 22 -1,0 C 5,2 C
07.03.2013 21:36 5,2 C 63 % 1007,8 hPa 0,0 l/m 11,2 km/h (2 Bft) O-SO 112 -1,3 C 2,7 C
07.03.2013 21:41 5,3 C 63 % 1007,8 hPa 0,0 l/m 18,7 km/h (3 Bft) O 90 -1,2 C 1,6 C
07.03.2013 21:46 5,3 C 62 % 1007,9 hPa 0,0 l/m 5,4 km/h (1 Bft) O 90 -1,4 C 4,3 C
07.03.2013 21:51 5,3 C 62 % 1007,8 hPa 0,0 l/m 6,8 km/h (2 Bft) O-NO 67 -1,4 C 3,8 C
07.03.2013 21:56 5,3 C 62 % 1007,8 hPa 0,0 l/m 5,0 km/h (1 Bft) S-SO 157 -1,4 C 4,4 C
07.03.2013 22:01 5,3 C 62 % 1007,9 hPa 0,0 l/m 7,9 km/h (2 Bft) O-NO 67 -1,4 C 3,5 C
07.03.2013 22:06 5,3 C 62 % 1008,0 hPa 0,0 l/m 9,4 km/h (2 Bft) O 90 -1,4 C 3,1 C
07.03.2013 22:11 5,3 C 63 % 1007,6 hPa 0,0 l/m 5,0 km/h (1 Bft) O 90 -1,2 C 4,4 C
07.03.2013 22:16 5,3 C 63 % 1007,7 hPa 0,0 l/m 10,4 km/h (2 Bft) O-NO 67 -1,2 C 2,9 C
07.03.2013 22:21 5,3 C 63 % 1007,9 hPa 0,0 l/m 4,0 km/h (1 Bft) O 90 -1,2 C 5,3 C
07.03.2013 22:26 5,3 C 63 % 1007,8 hPa 0,0 l/m 14,4 km/h (3 Bft) O-NO 67 -1,2 C 2,2 C
07.03.2013 22:31 5,3 C 64 % 1007,9 hPa 0,0 l/m 6,1 km/h (2 Bft) O 90 -0,9 C 4,0 C
07.03.2013 22:36 5,3 C 64 % 1007,9 hPa 0,0 l/m 3,2 km/h (1 Bft) O-NO 67 -0,9 C 5,3 C
07.03.2013 22:41 5,2 C 64 % 1007,8 hPa 0,0 l/m 8,3 km/h (2 Bft) O-NO 67 -1,0 C 3,3 C
07.03.2013 22:46 5,2 C 64 % 1007,9 hPa 0,0 l/m 7,6 km/h (2 Bft) O-SO 112 -1,0 C 3,5 C
07.03.2013 22:51 5,2 C 65 % 1007,7 hPa 0,0 l/m 9,0 km/h (2 Bft) O-NO 67 -0,8 C 3,1 C
07.03.2013 22:56 5,2 C 65 % 1007,7 hPa 0,0 l/m 7,2 km/h (2 Bft) O-NO 67 -0,8 C 3,6 C
07.03.2013 23:01 5,3 C 66 % 1007,7 hPa 0,0 l/m 14,4 km/h (3 Bft) O-NO 67 -0,5 C 2,2 C
07.03.2013 23:06 5,3 C 67 % 1007,8 hPa 0,0 l/m 10,1 km/h (2 Bft) SO 135 -0,3 C 3,0 C
07.03.2013 23:11 5,3 C 68 % 1007,6 hPa 0,0 l/m 6,1 km/h (2 Bft) O 90 -0,1 C 4,0 C
07.03.2013 23:16 5,4 C 70 % 1007,9 hPa 0,0 l/m 13,7 km/h (3 Bft) SO 135 0,4 C 2,4 C
07.03.2013 23:21 5,5 C 71 % 1007,8 hPa 0,0 l/m 14,4 km/h (3 Bft) SO 135 0,7 C 2,5 C
07.03.2013 23:26 5,5 C 72 % 1007,8 hPa 0,0 l/m 12,2 km/h (2 Bft) O-SO 112 0,9 C 2,8 C
07.03.2013 23:31 5,5 C 73 % 1008,0 hPa 0,0 l/m 7,2 km/h (2 Bft) SO 135 1,1 C 3,9 C
07.03.2013 23:36 5,5 C 73 % 1007,9 hPa 0,0 l/m 6,5 km/h (2 Bft) SO 135 1,1 C 4,1 C
07.03.2013 23:41 5,5 C 73 % 1007,8 hPa 0,0 l/m 11,9 km/h (2 Bft) S-SO 157 1,1 C 2,9 C
07.03.2013 23:46 5,5 C 73 % 1007,9 hPa 0,0 l/m 13,0 km/h (3 Bft) O-SO 112 1,1 C 2,7 C
07.03.2013 23:51 5,5 C 73 % 1007,9 hPa 0,0 l/m 15,5 km/h (3 Bft) O 90 1,1 C 2,3 C
07.03.2013 23:56 5,5 C 73 % 1007,8 hPa 0,0 l/m 16,6 km/h (3 Bft) SO 135 1,1 C 2,1 C
_ Min-Zeit 04:41 21:46 00:56 - 02:16 - - 21:46 07:21
Minimum _ 1,3 C 62 % 1005,1 hPa - 0,0 km/h (0 Bft) - - -1,4 C -1,8 C
_ Max-Zeit 15:26 03:21 22:06 00:01 16:41 - - 15:26 15:21
Maximum _ 7,9 C 85 % 1008,0 hPa 0,0 l/m 24,8 km/h
O-SO (4 Bft)
- - 1,7 C 7,8 C
Durchschnitt _ 4,8 C 72 % 1006,3 hPa #0,0 l/m 8,7 km/h (2 Bft) O-NO - 0,1 C 3,1 C
(c) by David Heller